Time;durP1;ratioP1;P1;durP2;ratioP2;P2;SDS_P1;SDS_P2;PMS_P1;PMS_P2;Temp;Humidity;BMP_temperature;BMP_pressure;BME280_temperature;BME280_humidity;BME280_pressure;Samples;Min_cycle;Max_cycle;Signal;HPM_P1;HPM_P2
2023/09/07 00:02:05;;;;;;;23.57;22.17;;;;;;;;;;5050624;28;20818;-78
2023/09/07 00:04:32;;;;;;;23.83;22.00;;;;;;;;;;5050752;28;20438;-77
2023/09/07 00:06:59;;;;;;;23.53;22.13;;;;;;;;;;5049763;28;20442;-77
2023/09/07 00:09:26;;;;;;;23.07;21.70;;;;;;;;;;5050250;28;20948;-77
2023/09/07 00:11:53;;;;;;;24.50;22.83;;;;;;;;;;5050587;28;20446;-77
2023/09/07 00:14:22;;;;;;;24.00;22.50;;;;;;;;;;5050239;28;20905;-78
2023/09/07 00:16:50;;;;;;;24.53;22.70;;;;;;;;;;5049965;28;20438;-76
2023/09/07 00:19:17;;;;;;;23.10;21.80;;;;;;;;;;5051062;28;20925;-78
2023/09/07 00:21:44;;;;;;;23.30;21.80;;;;;;;;;;5054353;28;20416;-78
2023/09/07 00:24:11;;;;;;;23.33;22.03;;;;;;;;;;5054159;28;20464;-78
2023/09/07 00:26:38;;;;;;;23.73;22.03;;;;;;;;;;5053688;28;20470;-78
2023/09/07 00:29:06;;;;;;;24.80;23.03;;;;;;;;;;5054038;28;20458;-77
2023/09/07 00:31:34;;;;;;;23.77;22.27;;;;;;;;;;5054085;28;20517;-76
2023/09/07 00:34:01;;;;;;;24.93;23.43;;;;;;;;;;5054026;28;20500;-76
2023/09/07 00:36:28;;;;;;;24.53;22.90;;;;;;;;;;5053282;28;20491;-78
2023/09/07 00:38:55;;;;;;;24.47;23.07;;;;;;;;;;5053502;28;20486;-76
2023/09/07 00:41:22;;;;;;;24.27;22.87;;;;;;;;;;5067066;28;20476;-77
2023/09/07 00:43:49;;;;;;;25.40;23.90;;;;;;;;;;5073773;28;20895;-77
2023/09/07 00:46:16;;;;;;;25.20;23.60;;;;;;;;;;5073335;28;20546;-78
2023/09/07 00:48:45;;;;;;;24.67;22.77;;;;;;;;;;5073726;28;20429;-78
2023/09/07 00:51:12;;;;;;;24.30;22.70;;;;;;;;;;5073389;28;20420;-77
2023/09/07 00:53:39;;;;;;;24.33;22.93;;;;;;;;;;5073603;28;20873;-76
2023/09/07 00:56:07;;;;;;;23.30;21.90;;;;;;;;;;5073469;28;20453;-78
2023/09/07 00:58:34;;;;;;;23.90;22.40;;;;;;;;;;5073449;28;20500;-78
2023/09/07 01:01:02;;;;;;;24.40;22.90;;;;;;;;;;5056238;28;20781;-76
2023/09/07 01:03:29;;;;;;;24.07;22.60;;;;;;;;;;5053767;28;20508;-77
2023/09/07 01:06:00;;;;;;;24.50;22.83;;;;;;;;;;5053246;28;20924;-77
2023/09/07 01:08:30;;;;;;;24.27;22.57;;;;;;;;;;5052488;28;21028;-78
2023/09/07 01:10:57;;;;;;;24.10;22.60;;;;;;;;;;5053542;28;20530;-77
2023/09/07 01:13:24;;;;;;;25.23;22.93;;;;;;;;;;5052789;28;20466;-78
2023/09/07 01:15:51;;;;;;;24.50;23.00;;;;;;;;;;5053394;28;20433;-77
2023/09/07 01:18:19;;;;;;;24.47;22.97;;;;;;;;;;5052189;28;20490;-78
2023/09/07 01:20:46;;;;;;;24.57;23.00;;;;;;;;;;5053083;28;20441;-77
2023/09/07 01:23:15;;;;;;;24.73;23.10;;;;;;;;;;5053273;28;20444;-78
2023/09/07 01:25:42;;;;;;;25.10;23.40;;;;;;;;;;5053180;28;20429;-77
2023/09/07 01:28:09;;;;;;;24.30;22.90;;;;;;;;;;5052794;28;20473;-76
2023/09/07 01:30:38;;;;;;;24.23;22.67;;;;;;;;;;5051778;28;20441;-77
2023/09/07 01:33:05;;;;;;;24.80;23.20;;;;;;;;;;5052800;28;20421;-78
2023/09/07 01:35:34;;;;;;;23.47;22.00;;;;;;;;;;5052188;28;20483;-77
2023/09/07 01:38:01;;;;;;;24.27;22.87;;;;;;;;;;5052214;28;20789;-77
2023/09/07 01:40:29;;;;;;;24.90;23.40;;;;;;;;;;5052577;28;20463;-78
2023/09/07 01:42:57;;;;;;;23.50;22.10;;;;;;;;;;5053001;28;20880;-77
2023/09/07 01:45:24;;;;;;;23.70;22.27;;;;;;;;;;5053160;28;20421;-76
2023/09/07 01:47:51;;;;;;;25.07;23.47;;;;;;;;;;5052359;28;20521;-77
2023/09/07 01:50:19;;;;;;;24.70;23.20;;;;;;;;;;5052350;28;20856;-76
2023/09/07 01:52:47;;;;;;;23.93;22.43;;;;;;;;;;5052679;28;20419;-77
2023/09/07 01:55:14;;;;;;;25.67;24.07;;;;;;;;;;5052806;28;20477;-78
2023/09/07 01:57:42;;;;;;;24.80;23.40;;;;;;;;;;5051875;28;20453;-77
2023/09/07 02:00:10;;;;;;;24.43;22.93;;;;;;;;;;5070313;28;20578;-77
2023/09/07 02:02:37;;;;;;;24.47;22.97;;;;;;;;;;5072396;28;20446;-77
2023/09/07 02:05:05;;;;;;;24.03;22.63;;;;;;;;;;5072055;28;20549;-77
2023/09/07 02:07:32;;;;;;;23.73;22.33;;;;;;;;;;5071194;28;20422;-76
2023/09/07 02:09:59;;;;;;;24.20;22.60;;;;;;;;;;5071618;28;20490;-77
2023/09/07 02:12:26;;;;;;;24.47;22.97;;;;;;;;;;5071850;28;20471;-77
2023/09/07 02:14:54;;;;;;;24.70;23.20;;;;;;;;;;5071842;28;20449;-78
2023/09/07 02:17:21;;;;;;;24.73;23.10;;;;;;;;;;5070810;28;20591;-78
2023/09/07 02:19:48;;;;;;;24.43;22.90;;;;;;;;;;5071010;28;20522;-78
2023/09/07 02:22:15;;;;;;;25.90;24.30;;;;;;;;;;5070894;28;20507;-77
2023/09/07 02:24:42;;;;;;;24.53;22.97;;;;;;;;;;5071665;28;20441;-77
2023/09/07 02:27:09;;;;;;;24.73;23.33;;;;;;;;;;5070906;28;20450;-76
2023/09/07 02:29:36;;;;;;;24.73;23.17;;;;;;;;;;5070725;28;20539;-77
2023/09/07 02:32:05;;;;;;;24.67;23.27;;;;;;;;;;5071244;28;20542;-76
2023/09/07 02:34:36;;;;;;;23.60;22.30;;;;;;;;;;5070920;28;20466;-76
2023/09/07 02:37:03;;;;;;;23.63;22.23;;;;;;;;;;5070796;28;20462;-78
2023/09/07 02:39:30;;;;;;;25.60;24.00;;;;;;;;;;5071027;28;20526;-77
2023/09/07 02:41:57;;;;;;;23.93;22.43;;;;;;;;;;5070479;28;20442;-77
2023/09/07 02:44:24;;;;;;;23.50;22.00;;;;;;;;;;5070994;28;20420;-77
2023/09/07 02:46:51;;;;;;;24.47;22.90;;;;;;;;;;5069367;28;20892;-77
2023/09/07 02:49:19;;;;;;;25.00;23.50;;;;;;;;;;5070328;28;20440;-77
2023/09/07 02:51:46;;;;;;;25.00;23.40;;;;;;;;;;5070580;28;20895;-78
2023/09/07 02:54:13;;;;;;;24.60;22.97;;;;;;;;;;5070452;28;20420;-78
2023/09/07 02:56:40;;;;;;;23.93;22.60;;;;;;;;;;5069700;28;20916;-77
2023/09/07 02:59:08;;;;;;;24.43;22.80;;;;;;;;;;5070708;28;20517;-77
2023/09/07 03:01:35;;;;;;;24.47;23.07;;;;;;;;;;5070862;28;20428;-77
2023/09/07 03:04:03;;;;;;;28.83;26.60;;;;;;;;;;5070954;28;20424;-77
2023/09/07 03:06:31;;;;;;;24.90;23.20;;;;;;;;;;5070041;28;20433;-77
2023/09/07 03:08:58;;;;;;;24.43;22.80;;;;;;;;;;5070672;28;20484;-78
2023/09/07 03:11:26;;;;;;;23.53;22.10;;;;;;;;;;5070808;28;20431;-78
2023/09/07 03:13:53;;;;;;;23.57;22.17;;;;;;;;;;5070626;28;20424;-78
2023/09/07 03:16:20;;;;;;;23.67;22.13;;;;;;;;;;5070059;28;20447;-77
2023/09/07 03:18:47;;;;;;;24.00;22.27;;;;;;;;;;5070517;28;20464;-78
2023/09/07 03:21:14;;;;;;;23.70;22.10;;;;;;;;;;5070343;28;20499;-76
2023/09/07 03:23:44;;;;;;;23.60;22.20;;;;;;;;;;5070385;28;20518;-76
2023/09/07 03:26:11;;;;;;;24.23;22.63;;;;;;;;;;5069830;28;20454;-77
2023/09/07 03:28:38;;;;;;;24.97;23.27;;;;;;;;;;5070270;28;20462;-77
2023/09/07 03:31:05;;;;;;;24.23;22.70;;;;;;;;;;5070311;28;20424;-77
2023/09/07 03:33:32;;;;;;;25.03;23.43;;;;;;;;;;5070277;28;20503;-76
2023/09/07 03:35:59;;;;;;;24.73;22.97;;;;;;;;;;5070072;28;21059;-78
2023/09/07 03:38:26;;;;;;;24.53;23.03;;;;;;;;;;5069413;28;20485;-76
2023/09/07 03:40:55;;;;;;;24.60;23.00;;;;;;;;;;5069803;28;20985;-77
2023/09/07 03:43:22;;;;;;;24.80;23.27;;;;;;;;;;5070215;28;20491;-77
2023/09/07 03:45:50;;;;;;;24.17;22.77;;;;;;;;;;5070050;28;20423;-76
2023/09/07 03:48:17;;;;;;;24.10;22.57;;;;;;;;;;5069830;28;20417;-77
2023/09/07 03:50:44;;;;;;;24.67;22.87;;;;;;;;;;5070050;28;20458;-77
2023/09/07 03:53:11;;;;;;;24.40;22.90;;;;;;;;;;5069737;28;20396;-78
2023/09/07 03:55:42;;;;;;;23.67;22.27;;;;;;;;;;5073476;28;20449;-78
2023/09/07 03:58:11;;;;;;;24.40;22.90;;;;;;;;;;5073503;28;20430;-77
2023/09/07 04:00:40;;;;;;;24.50;23.00;;;;;;;;;;5073567;28;21019;-78
2023/09/07 04:03:07;;;;;;;25.30;23.20;;;;;;;;;;5074211;28;20447;-76
2023/09/07 04:05:34;;;;;;;23.30;21.90;;;;;;;;;;5054982;28;20788;-78
2023/09/07 04:08:02;;;;;;;24.10;22.70;;;;;;;;;;5053537;28;20462;-77
2023/09/07 04:10:29;;;;;;;24.90;23.40;;;;;;;;;;5054000;28;20441;-77
2023/09/07 04:12:56;;;;;;;25.47;23.80;;;;;;;;;;5053439;28;20561;-78
2023/09/07 04:15:26;;;;;;;25.30;23.60;;;;;;;;;;5053748;28;20860;-77
2023/09/07 04:17:54;;;;;;;23.97;22.50;;;;;;;;;;5053188;28;21286;-78
2023/09/07 04:20:22;;;;;;;29.10;24.40;;;;;;;;;;5066201;28;20485;-78
2023/09/07 04:22:49;;;;;;;25.00;23.23;;;;;;;;;;5073827;28;20480;-77
2023/09/07 04:25:16;;;;;;;25.63;24.03;;;;;;;;;;5073469;28;20499;-77
2023/09/07 04:27:43;;;;;;;25.50;23.87;;;;;;;;;;5072974;28;20450;-78
2023/09/07 04:30:10;;;;;;;24.90;23.40;;;;;;;;;;5073226;28;20444;-78
2023/09/07 04:32:39;;;;;;;24.77;23.30;;;;;;;;;;5073495;28;20445;-77
2023/09/07 04:35:07;;;;;;;25.17;23.60;;;;;;;;;;5072979;28;20524;-76
2023/09/07 04:37:34;;;;;;;26.00;24.30;;;;;;;;;;5072885;28;20473;-77
2023/09/07 04:40:01;;;;;;;25.53;24.00;;;;;;;;;;5062428;28;20563;-78
2023/09/07 04:42:28;;;;;;;26.30;24.60;;;;;;;;;;5052707;28;20446;-76
2023/09/07 04:44:55;;;;;;;25.57;23.97;;;;;;;;;;5053087;28;20501;-77
2023/09/07 04:47:22;;;;;;;26.10;24.50;;;;;;;;;;5052294;28;20992;-77
2023/09/07 04:49:51;;;;;;;25.77;24.23;;;;;;;;;;5052758;28;20533;-78
2023/09/07 04:52:18;;;;;;;26.10;24.50;;;;;;;;;;5053029;28;20421;-77
2023/09/07 04:54:45;;;;;;;24.80;23.30;;;;;;;;;;5052943;28;20434;-77
2023/09/07 04:57:13;;;;;;;26.10;24.40;;;;;;;;;;5058616;28;20425;-77
2023/09/07 04:59:40;;;;;;;24.27;22.80;;;;;;;;;;5052239;28;20484;-76
2023/09/07 05:02:07;;;;;;;25.40;23.80;;;;;;;;;;5053172;28;20472;-77
2023/09/07 05:04:34;;;;;;;25.57;23.67;;;;;;;;;;5052750;28;20433;-77
2023/09/07 05:07:02;;;;;;;25.70;24.10;;;;;;;;;;5052272;28;20979;-77
2023/09/07 05:09:29;;;;;;;25.43;23.67;;;;;;;;;;5052960;28;20474;-76
2023/09/07 05:11:57;;;;;;;25.50;23.90;;;;;;;;;;5052825;28;20516;-76
2023/09/07 05:14:24;;;;;;;26.00;24.40;;;;;;;;;;5052535;28;20447;-77
2023/09/07 05:16:52;;;;;;;26.77;24.80;;;;;;;;;;5052225;28;21246;-76
2023/09/07 05:19:19;;;;;;;26.30;24.60;;;;;;;;;;5052787;28;20465;-77
2023/09/07 05:21:46;;;;;;;26.10;24.40;;;;;;;;;;5052094;28;20429;-77
2023/09/07 05:24:15;;;;;;;27.10;25.00;;;;;;;;;;5052389;28;21064;-77
2023/09/07 05:26:43;;;;;;;28.40;25.67;;;;;;;;;;5052440;28;20514;-78
2023/09/07 05:29:10;;;;;;;26.70;24.33;;;;;;;;;;5052894;28;20458;-77
2023/09/07 05:31:37;;;;;;;27.53;25.20;;;;;;;;;;5052970;28;20447;-77
2023/09/07 05:34:05;;;;;;;27.90;25.80;;;;;;;;;;5052737;28;20909;-77
2023/09/07 05:36:32;;;;;;;27.37;24.80;;;;;;;;;;5052330;28;20820;-77
2023/09/07 05:39:01;;;;;;;25.23;23.50;;;;;;;;;;5052631;28;20548;-76
2023/09/07 05:41:29;;;;;;;26.77;24.87;;;;;;;;;;5052755;28;20526;-77
2023/09/07 05:43:56;;;;;;;25.93;24.07;;;;;;;;;;5052796;28;20800;-76
2023/09/07 05:46:23;;;;;;;26.87;25.00;;;;;;;;;;5052338;28;20434;-78
2023/09/07 05:48:50;;;;;;;24.93;23.43;;;;;;;;;;5052730;28;20856;-77
2023/09/07 05:51:17;;;;;;;26.00;24.30;;;;;;;;;;5052406;28;20425;-78
2023/09/07 05:53:44;;;;;;;25.60;23.90;;;;;;;;;;5053867;28;20429;-78
2023/09/07 05:56:11;;;;;;;25.60;24.00;;;;;;;;;;5052128;28;20430;-77
2023/09/07 05:58:39;;;;;;;26.53;24.50;;;;;;;;;;5052472;28;20447;-78
2023/09/07 06:01:06;;;;;;;26.00;24.30;;;;;;;;;;5052035;28;20429;-76
2023/09/07 06:03:35;;;;;;;25.77;24.27;;;;;;;;;;5052291;28;20454;-77
2023/09/07 06:06:02;;;;;;;25.07;23.47;;;;;;;;;;5052247;28;20427;-78
2023/09/07 06:08:29;;;;;;;25.03;23.43;;;;;;;;;;5051127;28;20479;-78
2023/09/07 06:10:56;;;;;;;23.57;22.27;;;;;;;;;;5052242;28;20417;-77
2023/09/07 06:13:23;;;;;;;25.97;24.37;;;;;;;;;;5052235;28;21140;-77
2023/09/07 06:15:51;;;;;;;25.70;24.10;;;;;;;;;;5052204;28;20504;-78
2023/09/07 06:18:18;;;;;;;24.70;23.17;;;;;;;;;;5050715;28;20512;-77
2023/09/07 06:20:46;;;;;;;24.80;22.93;;;;;;;;;;5052199;28;20465;-78
2023/09/07 06:23:13;;;;;;;24.50;23.00;;;;;;;;;;5052224;28;20409;-78
2023/09/07 06:25:41;;;;;;;24.63;22.80;;;;;;;;;;5051712;28;20421;-77
2023/09/07 06:28:08;;;;;;;25.80;24.13;;;;;;;;;;5050729;28;20494;-77
2023/09/07 06:30:35;;;;;;;26.83;24.67;;;;;;;;;;5050828;28;20467;-78
2023/09/07 06:33:04;;;;;;;24.93;23.27;;;;;;;;;;5050958;28;20421;-78
2023/09/07 06:35:31;;;;;;;25.37;23.77;;;;;;;;;;5052060;28;20447;-77
2023/09/07 06:37:58;;;;;;;24.53;23.00;;;;;;;;;;5053305;28;20481;-88
2023/09/07 06:40:25;;;;;;;24.90;23.33;;;;;;;;;;5056931;28;20492;-88
2023/09/07 06:42:53;;;;;;;24.20;22.70;;;;;;;;;;5056570;28;21010;-84
2023/09/07 06:45:21;;;;;;;25.50;23.80;;;;;;;;;;5061050;28;20447;-85
2023/09/07 06:47:50;;;;;;;25.00;23.53;;;;;;;;;;5057399;28;20481;-83
2023/09/07 06:50:19;;;;;;;25.50;23.90;;;;;;;;;;5054349;28;20526;-81
2023/09/07 06:52:46;;;;;;;25.07;23.40;;;;;;;;;;5056024;28;20443;-81
2023/09/07 06:55:13;;;;;;;24.50;23.13;;;;;;;;;;5056815;28;20453;-81
2023/09/07 06:57:40;;;;;;;25.50;23.80;;;;;;;;;;5057388;28;20450;-85
2023/09/07 07:00:07;;;;;;;24.70;23.20;;;;;;;;;;5056703;28;20552;-83
2023/09/07 07:02:35;;;;;;;24.90;23.27;;;;;;;;;;5057304;28;20451;-85
2023/09/07 07:05:02;;;;;;;23.87;22.23;;;;;;;;;;5052101;28;20534;-83
2023/09/07 07:07:31;;;;;;;23.23;21.83;;;;;;;;;;5054434;28;20451;-80
2023/09/07 07:09:58;;;;;;;22.47;21.17;;;;;;;;;;5055149;28;20878;-80
2023/09/07 07:12:26;;;;;;;23.67;22.17;;;;;;;;;;5055159;28;20777;-76
2023/09/07 07:14:53;;;;;;;23.00;21.70;;;;;;;;;;5050891;28;20454;-75
2023/09/07 07:17:20;;;;;;;23.40;22.00;;;;;;;;;;5050673;28;20451;-76
2023/09/07 07:19:47;;;;;;;23.03;21.73;;;;;;;;;;5050903;28;20486;-76
2023/09/07 07:22:14;;;;;;;24.70;23.17;;;;;;;;;;5051158;28;20442;-75
2023/09/07 07:24:43;;;;;;;23.50;22.20;;;;;;;;;;5050957;28;20521;-76
2023/09/07 07:27:10;;;;;;;24.90;23.30;;;;;;;;;;5050120;28;20443;-76
2023/09/07 07:29:38;;;;;;;23.33;21.83;;;;;;;;;;5050503;28;21283;-76
2023/09/07 07:32:05;;;;;;;23.50;22.20;;;;;;;;;;5050632;28;20889;-75
2023/09/07 07:34:32;;;;;;;24.43;22.97;;;;;;;;;;5050775;28;20425;-75
2023/09/07 07:36:59;;;;;;;24.13;22.63;;;;;;;;;;5050040;28;20955;-75
2023/09/07 07:39:26;;;;;;;23.77;22.27;;;;;;;;;;5058748;28;20505;-83
2023/09/07 07:41:55;;;;;;;23.47;22.00;;;;;;;;;;5077156;28;20498;-85
2023/09/07 07:44:22;;;;;;;24.33;22.83;;;;;;;;;;5076053;28;20981;-83
2023/09/07 07:46:49;;;;;;;23.70;22.30;;;;;;;;;;5074701;28;20431;-85
2023/09/07 07:49:16;;;;;;;24.47;22.87;;;;;;;;;;5075593;28;20454;-83
2023/09/07 07:51:43;;;;;;;24.50;22.90;;;;;;;;;;5075369;28;20929;-84
2023/09/07 07:54:10;;;;;;;24.37;22.93;;;;;;;;;;5074782;28;20560;-82
2023/09/07 07:56:37;;;;;;;23.50;22.10;;;;;;;;;;5073746;28;20819;-83
2023/09/07 07:59:06;;;;;;;24.60;23.10;;;;;;;;;;5071771;28;20460;-81
2023/09/07 08:01:33;;;;;;;23.87;22.47;;;;;;;;;;5054171;28;20517;-82
2023/09/07 08:04:00;;;;;;;24.07;22.60;;;;;;;;;;5059633;28;20904;-82
2023/09/07 08:06:27;;;;;;;24.50;23.00;;;;;;;;;;5066644;28;20421;-83
2023/09/07 08:08:54;;;;;;;25.70;24.20;;;;;;;;;;5062383;28;20468;-83
2023/09/07 08:11:21;;;;;;;27.00;25.33;;;;;;;;;;5075424;28;20416;-82
2023/09/07 08:13:48;;;;;;;24.87;23.20;;;;;;;;;;5077083;28;20469;-83
2023/09/07 08:16:17;;;;;;;25.50;23.90;;;;;;;;;;5076627;28;20420;-84
2023/09/07 08:18:45;;;;;;;25.60;24.10;;;;;;;;;;5076672;28;20503;-83
2023/09/07 08:21:12;;;;;;;25.10;23.60;;;;;;;;;;5064061;28;20625;-84
2023/09/07 08:23:39;;;;;;;26.07;24.37;;;;;;;;;;5053130;28;20447;-85
2023/09/07 08:26:06;;;;;;;25.80;24.20;;;;;;;;;;5050929;28;20976;-83
2023/09/07 08:28:33;;;;;;;25.90;24.07;;;;;;;;;;5052185;28;20479;-85
2023/09/07 08:31:00;;;;;;;24.77;23.27;;;;;;;;;;5054770;28;20474;-84
2023/09/07 08:33:29;;;;;;;25.23;23.73;;;;;;;;;;5054561;28;20841;-84
2023/09/07 08:35:57;;;;;;;25.17;23.67;;;;;;;;;;5052053;28;20458;-83
2023/09/07 08:38:27;;;;;;;25.63;24.13;;;;;;;;;;5053157;28;20428;-79
2023/09/07 08:40:55;;;;;;;26.80;25.03;;;;;;;;;;5056905;28;21306;-79
2023/09/07 08:43:22;;;;;;;25.07;23.40;;;;;;;;;;5055048;28;20485;-84
2023/09/07 08:45:52;;;;;;;25.23;23.50;;;;;;;;;;5051572;28;20440;-83
2023/09/07 08:48:20;;;;;;;25.23;23.73;;;;;;;;;;5053394;28;21146;-82
2023/09/07 08:50:52;;;;;;;25.10;23.60;;;;;;;;;;5053626;28;20930;-75
2023/09/07 08:53:19;;;;;;;26.10;24.50;;;;;;;;;;5054020;28;20409;-76
2023/09/07 08:55:47;;;;;;;25.10;23.50;;;;;;;;;;5055801;28;20437;-76
2023/09/07 08:58:14;;;;;;;25.20;23.60;;;;;;;;;;5071211;28;20456;-76
2023/09/07 09:00:43;;;;;;;25.93;24.33;;;;;;;;;;5063796;28;20546;-76
2023/09/07 09:03:10;;;;;;;26.33;24.57;;;;;;;;;;5067851;28;20470;-76
2023/09/07 09:05:37;;;;;;;25.80;24.10;;;;;;;;;;5064098;28;20507;-76
2023/09/07 09:08:06;;;;;;;25.37;23.77;;;;;;;;;;5059529;28;20462;-75
2023/09/07 09:10:33;;;;;;;26.07;24.40;;;;;;;;;;5063785;28;20996;-76
2023/09/07 09:13:00;;;;;;;25.20;23.70;;;;;;;;;;5056781;28;20436;-76
2023/09/07 09:15:27;;;;;;;26.40;24.30;;;;;;;;;;5072805;28;20424;-76
2023/09/07 09:17:55;;;;;;;26.37;24.80;;;;;;;;;;5073132;28;20420;-76
2023/09/07 09:20:23;;;;;;;26.33;24.73;;;;;;;;;;5072881;28;20460;-76
2023/09/07 09:22:51;;;;;;;25.30;23.70;;;;;;;;;;5073583;28;20503;-75
2023/09/07 09:25:20;;;;;;;26.83;24.90;;;;;;;;;;5073637;28;20429;-75
2023/09/07 09:27:47;;;;;;;27.63;25.63;;;;;;;;;;5066503;28;20425;-76
2023/09/07 09:30:16;;;;;;;26.30;24.70;;;;;;;;;;5072115;28;20939;-77
2023/09/07 09:32:43;;;;;;;25.73;24.13;;;;;;;;;;5073527;28;20424;-75
2023/09/07 09:35:10;;;;;;;26.23;24.63;;;;;;;;;;5072641;28;20475;-75
2023/09/07 09:37:44;;;;;;;26.53;24.90;;;;;;;;;;5067996;28;20432;-75
2023/09/07 09:40:12;;;;;;;27.60;25.90;;;;;;;;;;5051752;28;20476;-75
2023/09/07 09:42:40;;;;;;;26.37;24.57;;;;;;;;;;5063925;28;20455;-76
2023/09/07 09:45:09;;;;;;;25.90;24.20;;;;;;;;;;5072416;28;20482;-75
2023/09/07 09:47:36;;;;;;;25.63;23.70;;;;;;;;;;5073208;28;20445;-81
2023/09/07 09:50:06;;;;;;;26.33;24.73;;;;;;;;;;5077137;28;20443;-82
2023/09/07 09:52:33;;;;;;;25.90;24.27;;;;;;;;;;5070221;28;20488;-75
2023/09/07 09:55:01;;;;;;;25.60;23.90;;;;;;;;;;5072495;28;20446;-75
2023/09/07 09:57:28;;;;;;;25.80;24.10;;;;;;;;;;5072377;28;20428;-75
2023/09/07 09:59:57;;;;;;;27.17;25.00;;;;;;;;;;5072344;28;20470;-75
2023/09/07 10:02:24;;;;;;;26.40;24.90;;;;;;;;;;5068091;28;20424;-76
2023/09/07 10:04:52;;;;;;;26.17;24.47;;;;;;;;;;5070541;28;21198;-75
2023/09/07 10:07:20;;;;;;;26.47;24.87;;;;;;;;;;5071070;28;20503;-76
2023/09/07 10:09:47;;;;;;;25.90;24.30;;;;;;;;;;5071906;28;20474;-75
2023/09/07 10:12:14;;;;;;;26.10;24.40;;;;;;;;;;5072663;28;20483;-76
2023/09/07 10:14:41;;;;;;;26.37;24.87;;;;;;;;;;5072398;28;20453;-75
2023/09/07 10:17:10;;;;;;;27.17;25.47;;;;;;;;;;5072003;28;20475;-75
2023/09/07 10:19:39;;;;;;;27.77;26.00;;;;;;;;;;5072205;28;20975;-75
2023/09/07 10:22:06;;;;;;;26.37;24.67;;;;;;;;;;5071852;28;20547;-76
2023/09/07 10:24:35;;;;;;;25.90;24.00;;;;;;;;;;5072012;28;20416;-76
2023/09/07 10:27:04;;;;;;;25.50;23.90;;;;;;;;;;5071184;28;20440;-76
2023/09/07 10:29:41;;;;;;;25.60;24.10;;;;;;;;;;5072048;28;20474;-75
2023/09/07 10:32:12;;;;;;;26.53;24.83;;;;;;;;;;5071447;28;20430;-75
2023/09/07 10:34:42;;;;;;;25.57;23.93;;;;;;;;;;5072072;28;20434;-76
2023/09/07 10:37:13;;;;;;;26.60;24.90;;;;;;;;;;5071347;28;20912;-75
2023/09/07 10:39:42;;;;;;;25.70;24.10;;;;;;;;;;5071934;28;20481;-76
2023/09/07 10:42:09;;;;;;;26.37;24.63;;;;;;;;;;5071409;28;20518;-75
2023/09/07 10:44:37;;;;;;;26.10;24.43;;;;;;;;;;5071915;28;20428;-76
2023/09/07 10:47:05;;;;;;;26.93;25.23;;;;;;;;;;5071248;28;20429;-75
2023/09/07 10:49:33;;;;;;;28.60;26.73;;;;;;;;;;5071574;28;20979;-75
2023/09/07 10:52:00;;;;;;;27.03;25.40;;;;;;;;;;5071215;28;20469;-75
2023/09/07 10:54:28;;;;;;;27.77;26.17;;;;;;;;;;5071955;28;20442;-75
2023/09/07 10:56:57;;;;;;;27.20;25.50;;;;;;;;;;5071527;28;20485;-76
2023/09/07 10:59:24;;;;;;;26.73;25.07;;;;;;;;;;5071952;28;20480;-76
2023/09/07 11:01:52;;;;;;;26.83;25.03;;;;;;;;;;5072017;28;20518;-76
2023/09/07 11:04:20;;;;;;;27.03;25.43;;;;;;;;;;5070985;28;20473;-75
2023/09/07 11:06:49;;;;;;;27.17;25.67;;;;;;;;;;5071369;28;20446;-76
2023/09/07 11:09:16;;;;;;;27.03;25.23;;;;;;;;;;5071833;28;20947;-76
2023/09/07 11:11:47;;;;;;;27.93;26.17;;;;;;;;;;5071983;28;20443;-76
2023/09/07 11:14:14;;;;;;;27.07;25.37;;;;;;;;;;5071888;28;20479;-76
2023/09/07 11:16:43;;;;;;;25.70;24.00;;;;;;;;;;5071333;28;20416;-76
2023/09/07 11:19:10;;;;;;;26.53;24.93;;;;;;;;;;5071458;28;20477;-76
2023/09/07 11:21:37;;;;;;;27.97;26.10;;;;;;;;;;5071661;28;20464;-76
2023/09/07 11:24:06;;;;;;;27.07;25.37;;;;;;;;;;5071786;28;20431;-76
2023/09/07 11:26:42;;;;;;;26.77;25.07;;;;;;;;;;5071212;28;20481;-75
2023/09/07 11:29:09;;;;;;;26.77;25.07;;;;;;;;;;5071576;28;20468;-76
2023/09/07 11:31:36;;;;;;;26.47;24.63;;;;;;;;;;5071454;28;20412;-76
2023/09/07 11:34:04;;;;;;;26.87;24.97;;;;;;;;;;5071452;28;20450;-76
2023/09/07 11:36:31;;;;;;;26.70;25.00;;;;;;;;;;5070625;28;20453;-76
2023/09/07 11:38:58;;;;;;;27.13;25.43;;;;;;;;;;5071232;28;20458;-75
2023/09/07 11:41:26;;;;;;;26.23;24.47;;;;;;;;;;5071245;28;20448;-76
2023/09/07 11:43:53;;;;;;;28.20;26.40;;;;;;;;;;5070980;28;20938;-75
2023/09/07 11:46:20;;;;;;;27.03;25.33;;;;;;;;;;5070587;28;20499;-75
2023/09/07 11:48:47;;;;;;;26.60;25.00;;;;;;;;;;5071099;28;20776;-76
2023/09/07 11:51:14;;;;;;;26.37;24.67;;;;;;;;;;5067428;28;20453;-76
2023/09/07 11:53:41;;;;;;;26.90;25.10;;;;;;;;;;5061079;28;20819;-76
2023/09/07 11:56:08;;;;;;;26.20;24.40;;;;;;;;;;5064183;28;20561;-76
2023/09/07 11:58:36;;;;;;;25.30;23.60;;;;;;;;;;5070685;28;20503;-76
2023/09/07 12:01:04;;;;;;;26.10;24.40;;;;;;;;;;5071142;28;20493;-75
2023/09/07 12:03:33;;;;;;;25.97;24.33;;;;;;;;;;5070906;28;20524;-76
2023/09/07 12:06:00;;;;;;;26.27;24.57;;;;;;;;;;5071029;28;20425;-76
2023/09/07 12:08:27;;;;;;;26.23;24.53;;;;;;;;;;5069966;28;20424;-75
2023/09/07 12:10:54;;;;;;;27.37;25.20;;;;;;;;;;5070712;28;20442;-76
2023/09/07 12:13:21;;;;;;;26.17;24.40;;;;;;;;;;5070940;28;20430;-76
2023/09/07 12:15:49;;;;;;;26.27;24.40;;;;;;;;;;5072279;28;20507;-76
2023/09/07 12:18:16;;;;;;;25.90;24.20;;;;;;;;;;5074213;28;20424;-76
2023/09/07 12:20:44;;;;;;;26.87;24.97;;;;;;;;;;5074879;28;20537;-76
2023/09/07 12:23:11;;;;;;;27.23;25.43;;;;;;;;;;5074875;28;20453;-76
2023/09/07 12:25:38;;;;;;;27.10;25.30;;;;;;;;;;5075082;28;20441;-76
2023/09/07 12:28:05;;;;;;;25.60;24.00;;;;;;;;;;5074160;28;20456;-76
2023/09/07 12:30:32;;;;;;;26.63;24.77;;;;;;;;;;5074758;28;20474;-76
2023/09/07 12:33:01;;;;;;;26.53;24.93;;;;;;;;;;5074361;28;20458;-76
2023/09/07 12:35:28;;;;;;;27.27;25.33;;;;;;;;;;5074452;28;20450;-76
2023/09/07 12:37:55;;;;;;;26.53;24.93;;;;;;;;;;5073732;28;21350;-76
2023/09/07 12:40:22;;;;;;;26.27;24.33;;;;;;;;;;5074178;28;20484;-76
2023/09/07 12:42:49;;;;;;;26.53;24.83;;;;;;;;;;5074260;28;20488;-76
2023/09/07 12:45:16;;;;;;;26.37;24.67;;;;;;;;;;5074477;28;20446;-76
2023/09/07 12:47:43;;;;;;;26.87;24.90;;;;;;;;;;5073987;28;20416;-77
2023/09/07 12:50:12;;;;;;;26.40;24.60;;;;;;;;;;5074513;28;20825;-76
2023/09/07 12:52:39;;;;;;;26.37;24.30;;;;;;;;;;5074570;28;20492;-76
2023/09/07 12:55:06;;;;;;;26.13;24.23;;;;;;;;;;5075681;28;20458;-76
2023/09/07 12:57:33;;;;;;;25.90;24.20;;;;;;;;;;5072745;28;20470;-76
2023/09/07 13:00:00;;;;;;;25.30;23.70;;;;;;;;;;5074346;28;20515;-83
2023/09/07 13:02:27;;;;;;;26.40;24.70;;;;;;;;;;5059364;28;20468;-82
2023/09/07 13:04:55;;;;;;;26.10;24.40;;;;;;;;;;5059392;28;20808;-83
2023/09/07 13:07:24;;;;;;;26.37;24.67;;;;;;;;;;5059501;28;20485;-82
2023/09/07 13:09:51;;;;;;;26.73;24.73;;;;;;;;;;5060741;28;20974;-82
2023/09/07 13:12:18;;;;;;;26.93;25.00;;;;;;;;;;5061459;28;20442;-82
2023/09/07 13:14:47;;;;;;;26.87;25.10;;;;;;;;;;5062035;28;20422;-85
2023/09/07 13:17:14;;;;;;;26.80;25.00;;;;;;;;;;5061588;28;20448;-83
2023/09/07 13:19:41;;;;;;;27.93;26.13;;;;;;;;;;5066486;28;20500;-76
2023/09/07 13:22:08;;;;;;;26.23;24.60;;;;;;;;;;5073438;28;20497;-76
2023/09/07 13:24:37;;;;;;;27.33;25.53;;;;;;;;;;5062357;28;20820;-77
2023/09/07 13:27:04;;;;;;;26.50;24.87;;;;;;;;;;5051138;28;20433;-75
2023/09/07 13:29:31;;;;;;;27.67;25.83;;;;;;;;;;5067099;28;20585;-79
2023/09/07 13:31:59;;;;;;;26.13;24.50;;;;;;;;;;5071690;28;20434;-75
2023/09/07 13:34:26;;;;;;;26.80;25.00;;;;;;;;;;5073597;28;20499;-76
2023/09/07 13:36:53;;;;;;;25.77;24.10;;;;;;;;;;5072387;28;20790;-76
2023/09/07 13:39:20;;;;;;;26.70;25.03;;;;;;;;;;5061909;28;20476;-76
2023/09/07 13:41:48;;;;;;;26.80;25.20;;;;;;;;;;5065240;28;20493;-75
2023/09/07 13:44:16;;;;;;;26.70;25.00;;;;;;;;;;5071883;28;20971;-76
2023/09/07 13:46:43;;;;;;;26.20;24.53;;;;;;;;;;5071641;28;20450;-75
2023/09/07 13:49:10;;;;;;;27.50;25.60;;;;;;;;;;5059209;28;20540;-76
2023/09/07 13:51:39;;;;;;;26.63;24.93;;;;;;;;;;5052066;28;20442;-76
2023/09/07 13:54:06;;;;;;;26.87;25.03;;;;;;;;;;5051047;28;20481;-76
2023/09/07 13:56:34;;;;;;;27.40;25.70;;;;;;;;;;5052648;28;20432;-76
2023/09/07 13:59:02;;;;;;;27.90;26.10;;;;;;;;;;5052582;28;20482;-75
2023/09/07 14:01:29;;;;;;;27.33;25.60;;;;;;;;;;5053054;28;20487;-80
2023/09/07 14:03:56;;;;;;;27.53;25.83;;;;;;;;;;5063347;28;20976;-84
2023/09/07 14:06:23;;;;;;;27.57;25.87;;;;;;;;;;5058698;28;20417;-84
2023/09/07 14:08:51;;;;;;;28.07;26.17;;;;;;;;;;5064136;28;20468;-83
2023/09/07 14:11:18;;;;;;;26.60;25.00;;;;;;;;;;5072910;28;20453;-77
2023/09/07 14:13:46;;;;;;;27.33;25.73;;;;;;;;;;5054889;28;20458;-77
2023/09/07 14:16:15;;;;;;;28.10;26.20;;;;;;;;;;5067288;28;20584;-77
2023/09/07 14:18:42;;;;;;;28.10;26.17;;;;;;;;;;5070183;28;20471;-77